sensor_id;sensor_type;location;lat;lon;timestamp;P1;durP1;ratioP1;P2;durP2;ratioP2
7128;SDS011;3606;52.930;8.644;2023-02-03T00:01:10;13.37;;;10.27;;
7128;SDS011;3606;52.930;8.644;2023-02-03T00:03:35;18.20;;;10.77;;
7128;SDS011;3606;52.930;8.644;2023-02-03T00:06:01;24.13;;;11.03;;
7128;SDS011;3606;52.930;8.644;2023-02-03T00:08:28;19.97;;;10.27;;
7128;SDS011;3606;52.930;8.644;2023-02-03T00:10:54;22.10;;;9.87;;
7128;SDS011;3606;52.930;8.644;2023-02-03T00:13:20;17.43;;;9.07;;
7128;SDS011;3606;52.930;8.644;2023-02-03T00:15:46;17.57;;;9.60;;
7128;SDS011;3606;52.930;8.644;2023-02-03T00:18:12;15.60;;;10.13;;
7128;SDS011;3606;52.930;8.644;2023-02-03T00:20:37;13.30;;;8.90;;
7128;SDS011;3606;52.930;8.644;2023-02-03T00:23:07;12.37;;;8.27;;
7128;SDS011;3606;52.930;8.644;2023-02-03T00:25:34;17.63;;;10.07;;
7128;SDS011;3606;52.930;8.644;2023-02-03T00:27:59;15.93;;;8.67;;
7128;SDS011;3606;52.930;8.644;2023-02-03T00:30:26;15.47;;;8.77;;
7128;SDS011;3606;52.930;8.644;2023-02-03T00:32:51;15.37;;;9.20;;
7128;SDS011;3606;52.930;8.644;2023-02-03T00:35:17;18.30;;;8.37;;
7128;SDS011;3606;52.930;8.644;2023-02-03T00:37:43;12.73;;;7.70;;
7128;SDS011;3606;52.930;8.644;2023-02-03T00:40:08;12.07;;;7.43;;
7128;SDS011;3606;52.930;8.644;2023-02-03T00:42:35;12.77;;;7.07;;
7128;SDS011;3606;52.930;8.644;2023-02-03T00:45:00;17.83;;;7.40;;
7128;SDS011;3606;52.930;8.644;2023-02-03T00:47:26;13.60;;;7.07;;
7128;SDS011;3606;52.930;8.644;2023-02-03T00:49:52;16.17;;;6.87;;
7128;SDS011;3606;52.930;8.644;2023-02-03T00:52:17;12.73;;;6.50;;
7128;SDS011;3606;52.930;8.644;2023-02-03T00:54:43;10.53;;;6.37;;
7128;SDS011;3606;52.930;8.644;2023-02-03T00:57:09;12.03;;;6.13;;
7128;SDS011;3606;52.930;8.644;2023-02-03T00:59:34;10.20;;;6.13;;
7128;SDS011;3606;52.930;8.644;2023-02-03T01:02:00;8.57;;;5.93;;
7128;SDS011;3606;52.930;8.644;2023-02-03T01:04:25;11.40;;;5.60;;
7128;SDS011;3606;52.930;8.644;2023-02-03T01:06:51;10.93;;;6.30;;
7128;SDS011;3606;52.930;8.644;2023-02-03T01:09:20;13.93;;;6.17;;
7128;SDS011;3606;52.930;8.644;2023-02-03T01:11:45;10.53;;;5.53;;
7128;SDS011;3606;52.930;8.644;2023-02-03T01:14:11;11.47;;;5.17;;
7128;SDS011;3606;52.930;8.644;2023-02-03T01:16:37;10.33;;;5.90;;
7128;SDS011;3606;52.930;8.644;2023-02-03T01:19:03;8.70;;;5.83;;
7128;SDS011;3606;52.930;8.644;2023-02-03T01:21:29;9.03;;;5.63;;
7128;SDS011;3606;52.930;8.644;2023-02-03T01:23:55;11.10;;;5.63;;
7128;SDS011;3606;52.930;8.644;2023-02-03T01:26:23;13.30;;;6.43;;
7128;SDS011;3606;52.930;8.644;2023-02-03T01:31:22;8.70;;;6.10;;
7128;SDS011;3606;52.930;8.644;2023-02-03T01:33:52;8.37;;;6.00;;
7128;SDS011;3606;52.930;8.644;2023-02-03T01:36:19;9.90;;;5.93;;
7128;SDS011;3606;52.930;8.644;2023-02-03T01:38:46;11.20;;;5.60;;
7128;SDS011;3606;52.930;8.644;2023-02-03T01:41:16;8.67;;;5.63;;
7128;SDS011;3606;52.930;8.644;2023-02-03T01:43:47;8.20;;;5.73;;
7128;SDS011;3606;52.930;8.644;2023-02-03T01:46:21;9.77;;;5.47;;
7128;SDS011;3606;52.930;8.644;2023-02-03T01:49:10;9.83;;;6.40;;
7128;SDS011;3606;52.930;8.644;2023-02-03T01:51:51;12.10;;;5.97;;
7128;SDS011;3606;52.930;8.644;2023-02-03T01:54:20;12.53;;;6.83;;
7128;SDS011;3606;52.930;8.644;2023-02-03T01:56:55;11.63;;;6.57;;
7128;SDS011;3606;52.930;8.644;2023-02-03T01:59:25;11.93;;;6.97;;
7128;SDS011;3606;52.930;8.644;2023-02-03T02:01:53;7.60;;;5.77;;
7128;SDS011;3606;52.930;8.644;2023-02-03T02:04:21;14.63;;;6.87;;
7128;SDS011;3606;52.930;8.644;2023-02-03T02:06:50;12.53;;;6.30;;
7128;SDS011;3606;52.930;8.644;2023-02-03T02:09:16;10.57;;;5.80;;
7128;SDS011;3606;52.930;8.644;2023-02-03T02:11:42;13.57;;;6.10;;
7128;SDS011;3606;52.930;8.644;2023-02-03T02:14:08;9.13;;;6.20;;
7128;SDS011;3606;52.930;8.644;2023-02-03T02:16:40;15.03;;;6.17;;
7128;SDS011;3606;52.930;8.644;2023-02-03T02:19:26;8.93;;;5.73;;
7128;SDS011;3606;52.930;8.644;2023-02-03T02:22:17;13.20;;;5.73;;
7128;SDS011;3606;52.930;8.644;2023-02-03T02:36:07;9.90;;;5.47;;
7128;SDS011;3606;52.930;8.644;2023-02-03T02:38:52;10.03;;;5.10;;
7128;SDS011;3606;52.930;8.644;2023-02-03T02:41:32;13.93;;;5.67;;
7128;SDS011;3606;52.930;8.644;2023-02-03T02:44:08;11.03;;;5.17;;
7128;SDS011;3606;52.930;8.644;2023-02-03T02:46:49;8.93;;;4.60;;
7128;SDS011;3606;52.930;8.644;2023-02-03T02:51:59;6.37;;;4.50;;
7128;SDS011;3606;52.930;8.644;2023-02-03T02:54:28;8.00;;;4.77;;
7128;SDS011;3606;52.930;8.644;2023-02-03T02:56:58;10.17;;;4.50;;
7128;SDS011;3606;52.930;8.644;2023-02-03T02:59:27;11.40;;;4.67;;
7128;SDS011;3606;52.930;8.644;2023-02-03T03:01:53;7.57;;;4.17;;
7128;SDS011;3606;52.930;8.644;2023-02-03T03:04:26;10.53;;;5.07;;
7128;SDS011;3606;52.930;8.644;2023-02-03T03:09:26;7.87;;;4.43;;
7128;SDS011;3606;52.930;8.644;2023-02-03T03:12:10;6.83;;;4.17;;
7128;SDS011;3606;52.930;8.644;2023-02-03T03:14:42;10.77;;;4.67;;
7128;SDS011;3606;52.930;8.644;2023-02-03T03:17:15;5.57;;;4.13;;
7128;SDS011;3606;52.930;8.644;2023-02-03T03:19:46;8.53;;;4.60;;
7128;SDS011;3606;52.930;8.644;2023-02-03T03:22:16;8.90;;;4.60;;
7128;SDS011;3606;52.930;8.644;2023-02-03T03:24:46;10.50;;;4.90;;
7128;SDS011;3606;52.930;8.644;2023-02-03T03:27:22;9.63;;;4.63;;
7128;SDS011;3606;52.930;8.644;2023-02-03T03:29:54;6.43;;;3.80;;
7128;SDS011;3606;52.930;8.644;2023-02-03T03:32:26;12.43;;;4.70;;
7128;SDS011;3606;52.930;8.644;2023-02-03T03:34:54;9.50;;;4.57;;
7128;SDS011;3606;52.930;8.644;2023-02-03T03:40:11;8.07;;;4.03;;
7128;SDS011;3606;52.930;8.644;2023-02-03T03:42:43;11.30;;;4.40;;
7128;SDS011;3606;52.930;8.644;2023-02-03T03:47:50;5.97;;;4.37;;
7128;SDS011;3606;52.930;8.644;2023-02-03T03:50:21;6.73;;;4.00;;
7128;SDS011;3606;52.930;8.644;2023-02-03T03:53:08;8.20;;;3.87;;
7128;SDS011;3606;52.930;8.644;2023-02-03T03:55:35;8.50;;;4.20;;
7128;SDS011;3606;52.930;8.644;2023-02-03T03:58:05;5.33;;;3.60;;
7128;SDS011;3606;52.930;8.644;2023-02-03T04:00:35;9.40;;;4.33;;
7128;SDS011;3606;52.930;8.644;2023-02-03T04:03:04;7.80;;;4.60;;
7128;SDS011;3606;52.930;8.644;2023-02-03T04:05:35;9.50;;;4.17;;
7128;SDS011;3606;52.930;8.644;2023-02-03T04:08:03;10.17;;;4.67;;
7128;SDS011;3606;52.930;8.644;2023-02-03T04:12:56;8.23;;;3.83;;
7128;SDS011;3606;52.930;8.644;2023-02-03T04:15:22;6.43;;;3.80;;
7128;SDS011;3606;52.930;8.644;2023-02-03T04:17:48;8.73;;;3.93;;
7128;SDS011;3606;52.930;8.644;2023-02-03T04:20:14;8.53;;;4.17;;
7128;SDS011;3606;52.930;8.644;2023-02-03T04:22:40;9.87;;;4.30;;
7128;SDS011;3606;52.930;8.644;2023-02-03T04:25:06;6.93;;;4.20;;
7128;SDS011;3606;52.930;8.644;2023-02-03T04:27:32;7.43;;;3.70;;
7128;SDS011;3606;52.930;8.644;2023-02-03T04:29:58;7.13;;;3.83;;
7128;SDS011;3606;52.930;8.644;2023-02-03T04:32:24;7.30;;;4.00;;
7128;SDS011;3606;52.930;8.644;2023-02-03T04:34:49;6.60;;;3.57;;
7128;SDS011;3606;52.930;8.644;2023-02-03T04:37:15;6.83;;;3.30;;
7128;SDS011;3606;52.930;8.644;2023-02-03T04:39:40;12.77;;;4.40;;
7128;SDS011;3606;52.930;8.644;2023-02-03T04:42:06;10.23;;;3.80;;
7128;SDS011;3606;52.930;8.644;2023-02-03T04:44:31;7.10;;;3.63;;
7128;SDS011;3606;52.930;8.644;2023-02-03T04:46:57;8.33;;;3.47;;
7128;SDS011;3606;52.930;8.644;2023-02-03T04:49:22;7.23;;;3.57;;
7128;SDS011;3606;52.930;8.644;2023-02-03T04:51:48;8.77;;;3.67;;
7128;SDS011;3606;52.930;8.644;2023-02-03T04:54:14;10.90;;;3.67;;
7128;SDS011;3606;52.930;8.644;2023-02-03T04:56:40;7.30;;;3.70;;
7128;SDS011;3606;52.930;8.644;2023-02-03T04:59:06;6.93;;;3.90;;
7128;SDS011;3606;52.930;8.644;2023-02-03T05:01:31;11.40;;;4.20;;
7128;SDS011;3606;52.930;8.644;2023-02-03T05:03:57;5.13;;;3.60;;
7128;SDS011;3606;52.930;8.644;2023-02-03T05:06:23;7.33;;;3.27;;
7128;SDS011;3606;52.930;8.644;2023-02-03T05:08:50;7.53;;;3.70;;
7128;SDS011;3606;52.930;8.644;2023-02-03T05:11:17;9.97;;;4.07;;
7128;SDS011;3606;52.930;8.644;2023-02-03T05:13:43;9.23;;;3.67;;
7128;SDS011;3606;52.930;8.644;2023-02-03T05:16:08;7.07;;;3.27;;
7128;SDS011;3606;52.930;8.644;2023-02-03T05:18:34;8.83;;;4.00;;
7128;SDS011;3606;52.930;8.644;2023-02-03T05:20:59;10.77;;;3.57;;
7128;SDS011;3606;52.930;8.644;2023-02-03T05:23:25;9.77;;;3.83;;
7128;SDS011;3606;52.930;8.644;2023-02-03T05:25:51;5.53;;;3.17;;
7128;SDS011;3606;52.930;8.644;2023-02-03T05:28:16;8.37;;;3.37;;
7128;SDS011;3606;52.930;8.644;2023-02-03T05:30:42;5.90;;;3.27;;
7128;SDS011;3606;52.930;8.644;2023-02-03T05:33:07;10.67;;;3.97;;
7128;SDS011;3606;52.930;8.644;2023-02-03T05:35:33;6.40;;;3.10;;
7128;SDS011;3606;52.930;8.644;2023-02-03T05:37:59;6.00;;;3.27;;
7128;SDS011;3606;52.930;8.644;2023-02-03T05:40:25;9.13;;;3.57;;
7128;SDS011;3606;52.930;8.644;2023-02-03T05:43:09;9.47;;;3.60;;
7128;SDS011;3606;52.930;8.644;2023-02-03T05:45:35;7.17;;;3.60;;
7128;SDS011;3606;52.930;8.644;2023-02-03T05:48:00;8.47;;;4.23;;
7128;SDS011;3606;52.930;8.644;2023-02-03T05:50:29;9.43;;;3.20;;
7128;SDS011;3606;52.930;8.644;2023-02-03T05:52:58;9.73;;;3.73;;
7128;SDS011;3606;52.930;8.644;2023-02-03T05:55:25;11.63;;;4.00;;
7128;SDS011;3606;52.930;8.644;2023-02-03T05:57:51;6.63;;;3.47;;
7128;SDS011;3606;52.930;8.644;2023-02-03T06:00:17;4.50;;;3.43;;
7128;SDS011;3606;52.930;8.644;2023-02-03T06:02:45;8.87;;;3.67;;
7128;SDS011;3606;52.930;8.644;2023-02-03T06:05:21;7.93;;;3.80;;
7128;SDS011;3606;52.930;8.644;2023-02-03T06:07:48;9.43;;;3.70;;
7128;SDS011;3606;52.930;8.644;2023-02-03T06:10:14;7.33;;;3.63;;
7128;SDS011;3606;52.930;8.644;2023-02-03T06:12:40;6.57;;;4.20;;
7128;SDS011;3606;52.930;8.644;2023-02-03T06:15:06;7.90;;;3.87;;
7128;SDS011;3606;52.930;8.644;2023-02-03T06:17:33;10.50;;;4.10;;
7128;SDS011;3606;52.930;8.644;2023-02-03T06:19:59;12.30;;;4.23;;
7128;SDS011;3606;52.930;8.644;2023-02-03T06:22:29;8.60;;;4.00;;
7128;SDS011;3606;52.930;8.644;2023-02-03T06:24:54;10.37;;;4.27;;
7128;SDS011;3606;52.930;8.644;2023-02-03T06:27:20;9.40;;;4.40;;
7128;SDS011;3606;52.930;8.644;2023-02-03T06:29:45;7.77;;;4.30;;
7128;SDS011;3606;52.930;8.644;2023-02-03T06:32:11;7.87;;;4.10;;
7128;SDS011;3606;52.930;8.644;2023-02-03T06:34:36;6.10;;;3.83;;
7128;SDS011;3606;52.930;8.644;2023-02-03T06:37:02;6.23;;;4.40;;
7128;SDS011;3606;52.930;8.644;2023-02-03T06:39:27;8.37;;;5.07;;
7128;SDS011;3606;52.930;8.644;2023-02-03T06:41:53;18.13;;;5.10;;
7128;SDS011;3606;52.930;8.644;2023-02-03T06:44:20;10.10;;;4.67;;
7128;SDS011;3606;52.930;8.644;2023-02-03T06:46:46;10.47;;;4.87;;
7128;SDS011;3606;52.930;8.644;2023-02-03T06:49:12;7.97;;;4.37;;
7128;SDS011;3606;52.930;8.644;2023-02-03T06:51:37;12.90;;;4.53;;
7128;SDS011;3606;52.930;8.644;2023-02-03T06:54:03;14.67;;;4.40;;
7128;SDS011;3606;52.930;8.644;2023-02-03T06:56:29;9.03;;;4.30;;
7128;SDS011;3606;52.930;8.644;2023-02-03T06:58:55;7.17;;;3.90;;
7128;SDS011;3606;52.930;8.644;2023-02-03T07:01:21;10.13;;;4.20;;
7128;SDS011;3606;52.930;8.644;2023-02-03T07:03:47;13.17;;;4.00;;
7128;SDS011;3606;52.930;8.644;2023-02-03T07:06:13;8.00;;;3.63;;
7128;SDS011;3606;52.930;8.644;2023-02-03T07:08:39;8.23;;;4.10;;
7128;SDS011;3606;52.930;8.644;2023-02-03T07:11:05;9.00;;;3.90;;
7128;SDS011;3606;52.930;8.644;2023-02-03T07:13:31;4.67;;;3.63;;
7128;SDS011;3606;52.930;8.644;2023-02-03T07:15:57;8.83;;;3.43;;
7128;SDS011;3606;52.930;8.644;2023-02-03T07:18:22;13.93;;;3.70;;
7128;SDS011;3606;52.930;8.644;2023-02-03T07:20:50;10.40;;;3.80;;
7128;SDS011;3606;52.930;8.644;2023-02-03T07:23:16;11.27;;;3.37;;
7128;SDS011;3606;52.930;8.644;2023-02-03T07:25:42;6.40;;;3.47;;
7128;SDS011;3606;52.930;8.644;2023-02-03T07:28:08;11.77;;;3.43;;
7128;SDS011;3606;52.930;8.644;2023-02-03T07:30:33;7.47;;;3.03;;
7128;SDS011;3606;52.930;8.644;2023-02-03T07:32:59;5.97;;;3.10;;
7128;SDS011;3606;52.930;8.644;2023-02-03T07:35:25;7.13;;;3.10;;
7128;SDS011;3606;52.930;8.644;2023-02-03T07:37:51;10.13;;;3.60;;
7128;SDS011;3606;52.930;8.644;2023-02-03T07:40:17;10.27;;;3.17;;
7128;SDS011;3606;52.930;8.644;2023-02-03T07:42:43;9.97;;;3.47;;
7128;SDS011;3606;52.930;8.644;2023-02-03T07:45:13;8.23;;;3.00;;
7128;SDS011;3606;52.930;8.644;2023-02-03T07:47:41;15.17;;;3.80;;
7128;SDS011;3606;52.930;8.644;2023-02-03T07:50:08;7.67;;;3.30;;
7128;SDS011;3606;52.930;8.644;2023-02-03T07:52:34;11.17;;;2.70;;
7128;SDS011;3606;52.930;8.644;2023-02-03T07:55:01;9.87;;;2.97;;
7128;SDS011;3606;52.930;8.644;2023-02-03T07:57:27;12.30;;;3.27;;
7128;SDS011;3606;52.930;8.644;2023-02-03T07:59:52;5.70;;;2.87;;
7128;SDS011;3606;52.930;8.644;2023-02-03T08:02:18;9.27;;;2.90;;
7128;SDS011;3606;52.930;8.644;2023-02-03T08:04:43;7.70;;;3.17;;
7128;SDS011;3606;52.930;8.644;2023-02-03T08:07:09;9.83;;;3.27;;
7128;SDS011;3606;52.930;8.644;2023-02-03T08:09:34;5.40;;;3.57;;
7128;SDS011;3606;52.930;8.644;2023-02-03T08:12:00;6.77;;;3.10;;
7128;SDS011;3606;52.930;8.644;2023-02-03T08:14:25;7.63;;;3.23;;
7128;SDS011;3606;52.930;8.644;2023-02-03T08:16:51;6.30;;;3.13;;
7128;SDS011;3606;52.930;8.644;2023-02-03T08:19:17;10.07;;;3.37;;
7128;SDS011;3606;52.930;8.644;2023-02-03T08:21:42;9.00;;;3.63;;
7128;SDS011;3606;52.930;8.644;2023-02-03T08:24:08;11.27;;;3.90;;
7128;SDS011;3606;52.930;8.644;2023-02-03T08:26:34;7.37;;;3.37;;
7128;SDS011;3606;52.930;8.644;2023-02-03T08:29:01;12.77;;;4.07;;
7128;SDS011;3606;52.930;8.644;2023-02-03T08:31:27;10.03;;;3.40;;
7128;SDS011;3606;52.930;8.644;2023-02-03T08:33:53;10.27;;;3.20;;
7128;SDS011;3606;52.930;8.644;2023-02-03T08:36:19;7.10;;;2.97;;
7128;SDS011;3606;52.930;8.644;2023-02-03T08:38:48;8.17;;;3.40;;
7128;SDS011;3606;52.930;8.644;2023-02-03T08:41:14;8.40;;;3.40;;
7128;SDS011;3606;52.930;8.644;2023-02-03T08:43:42;15.33;;;3.83;;
7128;SDS011;3606;52.930;8.644;2023-02-03T08:46:09;10.57;;;3.43;;
7128;SDS011;3606;52.930;8.644;2023-02-03T08:48:36;10.00;;;3.00;;
7128;SDS011;3606;52.930;8.644;2023-02-03T08:51:01;9.93;;;3.73;;
7128;SDS011;3606;52.930;8.644;2023-02-03T08:53:33;8.90;;;3.13;;
7128;SDS011;3606;52.930;8.644;2023-02-03T08:55:59;9.13;;;3.13;;
7128;SDS011;3606;52.930;8.644;2023-02-03T08:58:27;18.13;;;3.30;;
7128;SDS011;3606;52.930;8.644;2023-02-03T09:00:53;12.30;;;3.60;;
7128;SDS011;3606;52.930;8.644;2023-02-03T09:03:19;11.50;;;3.30;;
7128;SDS011;3606;52.930;8.644;2023-02-03T09:05:45;19.63;;;3.40;;
7128;SDS011;3606;52.930;8.644;2023-02-03T09:08:10;9.33;;;3.13;;
7128;SDS011;3606;52.930;8.644;2023-02-03T09:10:36;12.67;;;3.70;;
7128;SDS011;3606;52.930;8.644;2023-02-03T09:13:01;8.57;;;3.33;;
7128;SDS011;3606;52.930;8.644;2023-02-03T09:15:27;9.60;;;3.03;;
7128;SDS011;3606;52.930;8.644;2023-02-03T09:17:53;10.07;;;3.37;;
7128;SDS011;3606;52.930;8.644;2023-02-03T09:20:20;23.40;;;4.13;;
7128;SDS011;3606;52.930;8.644;2023-02-03T09:22:46;11.40;;;3.63;;
7128;SDS011;3606;52.930;8.644;2023-02-03T09:25:11;20.93;;;3.80;;
7128;SDS011;3606;52.930;8.644;2023-02-03T09:27:38;14.17;;;3.83;;
7128;SDS011;3606;52.930;8.644;2023-02-03T09:30:03;17.57;;;3.80;;
7128;SDS011;3606;52.930;8.644;2023-02-03T09:32:29;13.33;;;4.17;;
7128;SDS011;3606;52.930;8.644;2023-02-03T09:34:55;18.77;;;4.60;;
7128;SDS011;3606;52.930;8.644;2023-02-03T09:37:20;11.13;;;3.90;;
7128;SDS011;3606;52.930;8.644;2023-02-03T09:39:46;11.67;;;3.80;;
7128;SDS011;3606;52.930;8.644;2023-02-03T09:45:15;11.77;;;3.70;;
7128;SDS011;3606;52.930;8.644;2023-02-03T09:47:47;21.10;;;4.03;;
7128;SDS011;3606;52.930;8.644;2023-02-03T09:50:21;17.37;;;3.27;;
7128;SDS011;3606;52.930;8.644;2023-02-03T09:52:50;10.77;;;3.47;;
7128;SDS011;3606;52.930;8.644;2023-02-03T09:57:48;19.80;;;4.37;;
7128;SDS011;3606;52.930;8.644;2023-02-03T10:00:26;10.77;;;3.60;;
7128;SDS011;3606;52.930;8.644;2023-02-03T10:08:22;17.17;;;4.10;;
7128;SDS011;3606;52.930;8.644;2023-02-03T10:16:34;11.93;;;3.87;;
7128;SDS011;3606;52.930;8.644;2023-02-03T10:19:16;17.60;;;4.70;;
7128;SDS011;3606;52.930;8.644;2023-02-03T10:21:47;14.77;;;4.37;;
7128;SDS011;3606;52.930;8.644;2023-02-03T10:24:33;11.90;;;5.00;;
7128;SDS011;3606;52.930;8.644;2023-02-03T10:27:17;17.70;;;4.60;;
7128;SDS011;3606;52.930;8.644;2023-02-03T10:29:46;19.93;;;4.70;;
7128;SDS011;3606;52.930;8.644;2023-02-03T10:32:38;17.00;;;4.30;;
7128;SDS011;3606;52.930;8.644;2023-02-03T10:35:09;17.30;;;4.23;;
7128;SDS011;3606;52.930;8.644;2023-02-03T10:37:42;20.53;;;5.10;;
7128;SDS011;3606;52.930;8.644;2023-02-03T10:40:11;16.43;;;4.37;;
7128;SDS011;3606;52.930;8.644;2023-02-03T10:42:38;16.07;;;4.67;;
7128;SDS011;3606;52.930;8.644;2023-02-03T10:45:23;16.83;;;4.37;;
7128;SDS011;3606;52.930;8.644;2023-02-03T10:47:52;19.00;;;4.83;;
7128;SDS011;3606;52.930;8.644;2023-02-03T10:50:25;18.87;;;4.67;;
7128;SDS011;3606;52.930;8.644;2023-02-03T10:55:41;14.20;;;4.20;;
7128;SDS011;3606;52.930;8.644;2023-02-03T10:58:13;18.87;;;4.87;;
7128;SDS011;3606;52.930;8.644;2023-02-03T11:00:41;15.00;;;4.40;;
7128;SDS011;3606;52.930;8.644;2023-02-03T11:03:15;19.07;;;4.60;;
7128;SDS011;3606;52.930;8.644;2023-02-03T11:06:08;12.53;;;4.10;;
7128;SDS011;3606;52.930;8.644;2023-02-03T11:08:40;12.93;;;4.03;;
7128;SDS011;3606;52.930;8.644;2023-02-03T11:11:22;18.83;;;4.63;;
7128;SDS011;3606;52.930;8.644;2023-02-03T11:13:55;17.03;;;4.47;;
7128;SDS011;3606;52.930;8.644;2023-02-03T11:16:37;13.90;;;4.30;;
7128;SDS011;3606;52.930;8.644;2023-02-03T11:19:16;21.70;;;4.63;;
7128;SDS011;3606;52.930;8.644;2023-02-03T11:21:45;17.93;;;4.67;;
7128;SDS011;3606;52.930;8.644;2023-02-03T11:24:18;23.97;;;5.03;;
7128;SDS011;3606;52.930;8.644;2023-02-03T11:26:49;19.60;;;4.93;;
7128;SDS011;3606;52.930;8.644;2023-02-03T11:29:24;17.13;;;4.47;;
7128;SDS011;3606;52.930;8.644;2023-02-03T11:31:55;18.63;;;5.10;;
7128;SDS011;3606;52.930;8.644;2023-02-03T11:34:33;19.10;;;4.43;;
7128;SDS011;3606;52.930;8.644;2023-02-03T11:40:12;17.60;;;4.50;;
7128;SDS011;3606;52.930;8.644;2023-02-03T11:42:44;15.10;;;4.50;;
7128;SDS011;3606;52.930;8.644;2023-02-03T11:45:28;14.93;;;4.63;;
7128;SDS011;3606;52.930;8.644;2023-02-03T12:01:45;16.43;;;4.63;;
7128;SDS011;3606;52.930;8.644;2023-02-03T12:07:05;18.47;;;4.67;;
7128;SDS011;3606;52.930;8.644;2023-02-03T12:15:34;15.80;;;4.63;;
7128;SDS011;3606;52.930;8.644;2023-02-03T12:18:27;19.27;;;4.60;;
7128;SDS011;3606;52.930;8.644;2023-02-03T12:24:06;16.37;;;4.40;;
7128;SDS011;3606;52.930;8.644;2023-02-03T12:26:41;16.57;;;4.53;;
7128;SDS011;3606;52.930;8.644;2023-02-03T12:29:19;18.40;;;4.27;;
7128;SDS011;3606;52.930;8.644;2023-02-03T12:37:09;21.50;;;5.00;;
7128;SDS011;3606;52.930;8.644;2023-02-03T12:39:58;12.87;;;3.80;;
7128;SDS011;3606;52.930;8.644;2023-02-03T12:42:36;16.70;;;4.63;;
7128;SDS011;3606;52.930;8.644;2023-02-03T12:45:13;9.57;;;3.60;;
7128;SDS011;3606;52.930;8.644;2023-02-03T12:50:19;17.73;;;4.33;;
7128;SDS011;3606;52.930;8.644;2023-02-03T12:58:12;12.37;;;3.93;;
7128;SDS011;3606;52.930;8.644;2023-02-03T13:01:08;16.00;;;4.30;;
7128;SDS011;3606;52.930;8.644;2023-02-03T13:03:42;19.70;;;4.43;;
7128;SDS011;3606;52.930;8.644;2023-02-03T13:06:25;10.97;;;4.20;;
7128;SDS011;3606;52.930;8.644;2023-02-03T13:14:19;14.00;;;3.93;;
7128;SDS011;3606;52.930;8.644;2023-02-03T13:16:52;13.20;;;4.03;;
7128;SDS011;3606;52.930;8.644;2023-02-03T13:19:23;15.40;;;4.47;;
7128;SDS011;3606;52.930;8.644;2023-02-03T13:21:52;15.93;;;4.10;;
7128;SDS011;3606;52.930;8.644;2023-02-03T13:24:17;14.30;;;4.27;;
7128;SDS011;3606;52.930;8.644;2023-02-03T13:32:15;15.40;;;4.13;;
7128;SDS011;3606;52.930;8.644;2023-02-03T13:35:07;19.83;;;3.97;;
7128;SDS011;3606;52.930;8.644;2023-02-03T13:43:33;16.33;;;4.77;;
7128;SDS011;3606;52.930;8.644;2023-02-03T13:46:01;14.50;;;4.57;;
7128;SDS011;3606;52.930;8.644;2023-02-03T13:48:29;16.83;;;4.93;;
7128;SDS011;3606;52.930;8.644;2023-02-03T13:51:57;13.17;;;4.03;;
7128;SDS011;3606;52.930;8.644;2023-02-03T13:54:03;19.97;;;3.80;;
7128;SDS011;3606;52.930;8.644;2023-02-03T13:56:31;13.63;;;4.70;;
7128;SDS011;3606;52.930;8.644;2023-02-03T13:58:58;15.90;;;4.50;;
7128;SDS011;3606;52.930;8.644;2023-02-03T14:01:26;27.57;;;5.10;;
7128;SDS011;3606;52.930;8.644;2023-02-03T14:03:53;13.90;;;4.67;;
7128;SDS011;3606;52.930;8.644;2023-02-03T14:08:59;15.83;;;4.43;;
7128;SDS011;3606;52.930;8.644;2023-02-03T14:16:39;14.73;;;3.97;;
7128;SDS011;3606;52.930;8.644;2023-02-03T14:24:19;14.60;;;3.97;;
7128;SDS011;3606;52.930;8.644;2023-02-03T14:26:50;13.63;;;3.77;;
7128;SDS011;3606;52.930;8.644;2023-02-03T14:29:28;16.87;;;3.97;;
7128;SDS011;3606;52.930;8.644;2023-02-03T14:32:09;9.37;;;3.67;;
7128;SDS011;3606;52.930;8.644;2023-02-03T14:34:37;13.83;;;3.53;;
7128;SDS011;3606;52.930;8.644;2023-02-03T14:51:02;16.90;;;4.53;;
7128;SDS011;3606;52.930;8.644;2023-02-03T14:56:45;14.57;;;4.00;;
7128;SDS011;3606;52.930;8.644;2023-02-03T14:59:44;13.40;;;4.20;;
7128;SDS011;3606;52.930;8.644;2023-02-03T15:02:17;21.20;;;4.50;;
7128;SDS011;3606;52.930;8.644;2023-02-03T15:04:50;17.17;;;5.10;;
7128;SDS011;3606;52.930;8.644;2023-02-03T15:07:40;15.40;;;4.03;;
7128;SDS011;3606;52.930;8.644;2023-02-03T15:10:15;16.27;;;4.53;;
7128;SDS011;3606;52.930;8.644;2023-02-03T15:12:54;22.77;;;5.20;;
7128;SDS011;3606;52.930;8.644;2023-02-03T15:15:25;23.33;;;5.00;;
7128;SDS011;3606;52.930;8.644;2023-02-03T15:17:53;14.63;;;4.07;;
7128;SDS011;3606;52.930;8.644;2023-02-03T15:20:36;19.70;;;5.17;;
7128;SDS011;3606;52.930;8.644;2023-02-03T15:23:18;19.47;;;4.70;;
7128;SDS011;3606;52.930;8.644;2023-02-03T15:25:45;25.13;;;5.40;;
7128;SDS011;3606;52.930;8.644;2023-02-03T15:28:18;24.03;;;4.70;;
7128;SDS011;3606;52.930;8.644;2023-02-03T15:30:45;14.63;;;5.10;;
7128;SDS011;3606;52.930;8.644;2023-02-03T15:33:15;21.73;;;5.17;;
7128;SDS011;3606;52.930;8.644;2023-02-03T15:35:45;21.93;;;5.90;;
7128;SDS011;3606;52.930;8.644;2023-02-03T15:38:23;23.03;;;5.70;;
7128;SDS011;3606;52.930;8.644;2023-02-03T15:40:59;16.97;;;3.87;;
7128;SDS011;3606;52.930;8.644;2023-02-03T15:51:40;17.73;;;4.43;;
7128;SDS011;3606;52.930;8.644;2023-02-03T15:56:58;17.23;;;5.10;;
7128;SDS011;3606;52.930;8.644;2023-02-03T15:59:34;19.27;;;5.37;;
7128;SDS011;3606;52.930;8.644;2023-02-03T16:04:57;18.77;;;4.90;;
7128;SDS011;3606;52.930;8.644;2023-02-03T16:07:27;25.57;;;5.03;;
7128;SDS011;3606;52.930;8.644;2023-02-03T16:09:54;15.50;;;4.90;;
7128;SDS011;3606;52.930;8.644;2023-02-03T16:12:22;26.10;;;4.90;;
7128;SDS011;3606;52.930;8.644;2023-02-03T16:14:56;17.00;;;5.10;;
7128;SDS011;3606;52.930;8.644;2023-02-03T16:17:24;20.93;;;4.73;;
7128;SDS011;3606;52.930;8.644;2023-02-03T16:22:40;26.63;;;5.07;;
7128;SDS011;3606;52.930;8.644;2023-02-03T16:25:16;18.37;;;4.67;;
7128;SDS011;3606;52.930;8.644;2023-02-03T16:27:44;24.70;;;5.10;;
7128;SDS011;3606;52.930;8.644;2023-02-03T16:30:37;17.93;;;4.80;;
7128;SDS011;3606;52.930;8.644;2023-02-03T16:33:22;28.33;;;4.83;;
7128;SDS011;3606;52.930;8.644;2023-02-03T16:36:10;21.67;;;4.90;;
7128;SDS011;3606;52.930;8.644;2023-02-03T16:38:55;15.90;;;4.60;;
7128;SDS011;3606;52.930;8.644;2023-02-03T16:41:43;18.90;;;4.97;;
7128;SDS011;3606;52.930;8.644;2023-02-03T16:44:27;22.20;;;5.40;;
7128;SDS011;3606;52.930;8.644;2023-02-03T16:47:24;18.47;;;5.53;;
7128;SDS011;3606;52.930;8.644;2023-02-03T16:50:11;23.37;;;4.60;;
7128;SDS011;3606;52.930;8.644;2023-02-03T16:52:56;16.90;;;4.57;;
7128;SDS011;3606;52.930;8.644;2023-02-03T16:55:21;23.07;;;5.40;;
7128;SDS011;3606;52.930;8.644;2023-02-03T16:57:47;20.43;;;5.37;;
7128;SDS011;3606;52.930;8.644;2023-02-03T17:00:15;25.97;;;5.90;;
7128;SDS011;3606;52.930;8.644;2023-02-03T17:02:41;20.83;;;5.00;;
7128;SDS011;3606;52.930;8.644;2023-02-03T17:05:07;27.50;;;6.30;;
7128;SDS011;3606;52.930;8.644;2023-02-03T17:07:32;16.93;;;4.87;;
7128;SDS011;3606;52.930;8.644;2023-02-03T17:09:58;20.13;;;4.93;;
7128;SDS011;3606;52.930;8.644;2023-02-03T17:12:24;19.87;;;5.33;;
7128;SDS011;3606;52.930;8.644;2023-02-03T17:14:54;18.33;;;5.03;;
7128;SDS011;3606;52.930;8.644;2023-02-03T17:17:21;26.67;;;5.23;;
7128;SDS011;3606;52.930;8.644;2023-02-03T17:19:47;20.20;;;4.97;;
7128;SDS011;3606;52.930;8.644;2023-02-03T17:22:12;25.20;;;5.57;;
7128;SDS011;3606;52.930;8.644;2023-02-03T17:24:38;19.13;;;5.50;;
7128;SDS011;3606;52.930;8.644;2023-02-03T17:27:03;21.27;;;4.80;;
7128;SDS011;3606;52.930;8.644;2023-02-03T17:29:29;18.97;;;4.83;;
7128;SDS011;3606;52.930;8.644;2023-02-03T17:31:55;26.97;;;6.00;;
7128;SDS011;3606;52.930;8.644;2023-02-03T17:34:20;25.17;;;5.40;;
7128;SDS011;3606;52.930;8.644;2023-02-03T17:36:46;23.13;;;5.50;;
7128;SDS011;3606;52.930;8.644;2023-02-03T17:39:11;19.83;;;5.23;;
7128;SDS011;3606;52.930;8.644;2023-02-03T17:41:37;24.37;;;6.03;;
7128;SDS011;3606;52.930;8.644;2023-02-03T17:44:03;23.57;;;5.90;;
7128;SDS011;3606;52.930;8.644;2023-02-03T17:46:28;28.97;;;6.13;;
7128;SDS011;3606;52.930;8.644;2023-02-03T17:48:54;20.53;;;6.03;;
7128;SDS011;3606;52.930;8.644;2023-02-03T17:51:22;21.60;;;5.43;;
7128;SDS011;3606;52.930;8.644;2023-02-03T17:53:54;23.63;;;5.30;;